Time;durP1;ratioP1;P1;durP2;ratioP2;P2;SDS_P1;SDS_P2;PMS_P1;PMS_P2;Temp;Humidity;BMP_temperature;BMP_pressure;BME280_temperature;BME280_humidity;BME280_pressure;Samples;Min_cycle;Max_cycle;Signal;HPM_P1;HPM_P2
2021/04/07 00:01:22;;;;;;;2.30;2.20;;;;;;;-1.42;87.27;101051.09;5327473;26;20054;-71
2021/04/07 00:03:48;;;;;;;1.83;1.80;;;;;;;-1.45;87.04;101053.66;5323618;26;20035;-72
2021/04/07 00:06:13;;;;;;;1.70;1.70;;;;;;;-1.43;87.23;101063.09;5335235;26;20042;-71
2021/04/07 00:08:38;;;;;;;1.98;1.90;;;;;;;-1.45;86.68;101061.38;5323793;26;20046;-72
2021/04/07 00:11:04;;;;;;;2.00;1.90;;;;;;;-1.48;87.24;101062.25;5333394;26;20548;-71
2021/04/07 00:13:29;;;;;;;1.70;1.70;;;;;;;-1.43;87.17;101063.09;5341303;26;20038;-71
2021/04/07 00:15:55;;;;;;;1.67;1.67;;;;;;;-1.38;86.77;101065.72;5332420;26;20071;-71
2021/04/07 00:18:20;;;;;;;1.80;1.80;;;;;;;-1.39;86.81;101066.53;5341831;26;20042;-72
2021/04/07 00:20:45;;;;;;;1.70;1.70;;;;;;;-1.43;86.65;101054.53;5330715;26;20452;-72
2021/04/07 00:23:11;;;;;;;1.58;1.58;;;;;;;-1.34;87.34;101066.56;5322834;26;20057;-71
2021/04/07 00:25:36;;;;;;;2.08;1.98;;;;;;;-1.38;86.53;101068.28;5327816;26;20049;-71
2021/04/07 00:28:07;;;;;;;1.58;1.58;;;;;;;-1.41;86.71;101063.09;5323098;26;20057;-72
2021/04/07 00:30:35;;;;;;;1.80;1.80;;;;;;;-1.38;86.72;101065.72;5331029;26;20099;-73
2021/04/07 00:33:01;;;;;;;1.60;1.60;;;;;;;-1.36;86.38;101061.41;5342518;26;20035;-71
2021/04/07 00:35:29;;;;;;;1.70;1.70;;;;;;;-1.32;85.96;101070.87;5335626;26;20298;-71
2021/04/07 00:37:55;;;;;;;1.73;1.73;;;;;;;-1.34;86.50;101070.00;5342085;26;20068;-71
2021/04/07 00:40:20;;;;;;;1.80;1.80;;;;;;;-2.66;85.68;100858.66;5336186;26;20039;-71
2021/04/07 00:42:47;;;;;;;1.75;1.75;;;;;;;-1.38;86.16;101064.81;5322020;26;20486;-70
2021/04/07 00:45:12;;;;;;;1.60;1.60;;;;;;;-1.40;86.07;101067.41;5324133;26;20035;-70
2021/04/07 00:47:38;;;;;;;1.80;1.80;;;;;;;-1.49;86.59;101051.94;5322599;26;20054;-71
2021/04/07 00:50:04;;;;;;;1.87;1.87;;;;;;;-1.39;86.76;101061.41;5324863;26;20092;-70
2021/04/07 00:52:30;;;;;;;1.80;1.80;;;;;;;-1.41;86.33;101073.41;5322989;26;20043;-70
2021/04/07 00:54:55;;;;;;;1.75;1.75;;;;;;;-1.44;86.71;101078.56;5322310;26;20335;-70
2021/04/07 00:57:21;;;;;;;1.60;1.60;;;;;;;-1.43;86.77;101069.97;5341640;26;20046;-70
2021/04/07 00:59:46;;;;;;;1.70;1.70;;;;;;;-1.48;86.66;101071.69;5341009;26;20137;-72
2021/04/07 01:02:12;;;;;;;1.62;1.62;;;;;;;-1.46;86.67;101072.56;5322118;26;20091;-69
2021/04/07 01:04:38;;;;;;;1.50;1.50;;;;;;;-1.46;86.67;101075.97;5323361;26;20037;-71
2021/04/07 01:07:03;;;;;;;1.60;1.60;;;;;;;-1.41;87.13;101070.84;5323586;26;20030;-71
2021/04/07 01:09:29;;;;;;;1.62;1.62;;;;;;;-1.41;87.21;101068.25;5321458;26;20047;-71
2021/04/07 01:11:54;;;;;;;1.58;1.58;;;;;;;-1.36;86.73;101082.00;5323811;26;20077;-69
2021/04/07 01:14:19;;;;;;;1.58;1.58;;;;;;;-1.30;86.29;101078.59;5323201;26;20781;-72
2021/04/07 01:16:45;;;;;;;1.48;1.48;;;;;;;-1.39;86.57;101076.00;5339579;26;20042;-70
2021/04/07 01:19:10;;;;;;;1.70;1.70;;;;;;;-1.26;86.57;101082.91;5323048;26;20039;-70
2021/04/07 01:21:36;;;;;;;1.80;1.80;;;;;;;-2.33;86.61;100911.87;5334359;26;20045;-70
2021/04/07 01:24:03;;;;;;;1.60;1.60;;;;;;;-1.31;86.58;101090.59;5340359;26;20099;-70
2021/04/07 01:26:28;;;;;;;2.22;2.00;;;;;;;-1.31;86.19;101088.03;5326956;26;20173;-69
2021/04/07 01:28:54;;;;;;;1.60;1.60;;;;;;;-1.26;86.43;101090.63;5323875;26;20039;-70
2021/04/07 01:31:19;;;;;;;1.80;1.80;;;;;;;-1.44;85.93;101047.66;5334904;26;20049;-70
2021/04/07 01:33:44;;;;;;;1.55;1.55;;;;;;;-1.33;85.64;101076.84;5324577;26;20488;-71
2021/04/07 01:36:10;;;;;;;1.50;1.50;;;;;;;-1.29;85.96;101094.03;5334073;26;20034;-71
2021/04/07 01:38:35;;;;;;;1.70;1.70;;;;;;;-1.30;85.72;101087.19;5341784;26;20082;-72
2021/04/07 01:41:00;;;;;;;1.70;1.70;;;;;;;-1.32;85.72;101091.47;5330977;26;20103;-70
2021/04/07 01:43:26;;;;;;;1.50;1.50;;;;;;;-1.25;85.46;101095.75;5339950;26;20101;-71
2021/04/07 01:45:51;;;;;;;1.45;1.45;;;;;;;-1.32;85.68;101086.31;5332036;26;20031;-70
2021/04/07 01:48:17;;;;;;;1.40;1.40;;;;;;;-1.22;85.90;101092.34;5323471;26;20053;-70
2021/04/07 01:50:46;;;;;;;1.55;1.55;;;;;;;-1.31;86.05;101080.28;5328620;26;20727;-70
2021/04/07 01:53:12;;;;;;;1.48;1.48;;;;;;;-2.46;84.99;100876.72;5324548;26;20071;-71
2021/04/07 01:55:37;;;;;;;1.80;1.80;;;;;;;-1.08;85.14;101105.28;5323630;26;20461;-70
2021/04/07 01:58:03;;;;;;;1.50;1.50;;;;;;;-1.09;85.63;101103.53;5342071;26;20039;-70
2021/04/07 02:00:28;;;;;;;1.50;1.50;;;;;;;-1.10;85.38;101088.91;5337662;26;20493;-70
2021/04/07 02:02:54;;;;;;;1.80;1.80;;;;;;;-1.07;84.73;101094.09;5341484;26;20038;-70
2021/04/07 02:05:19;;;;;;;1.60;1.60;;;;;;;-1.03;84.52;101088.94;5340855;26;20046;-71
2021/04/07 02:07:45;;;;;;;1.67;1.67;;;;;;;-1.05;84.44;101098.37;5341559;26;20101;-70
2021/04/07 02:10:11;;;;;;;1.77;1.77;;;;;;;-0.98;84.17;101085.50;5340225;26;20102;-69
2021/04/07 02:12:36;;;;;;;1.60;1.60;;;;;;;-0.95;84.32;101083.81;5322250;26;20042;-70
2021/04/07 02:15:15;;;;;;;1.70;1.70;;;;;;;-0.94;84.50;101089.81;5322659;26;20049;-71
2021/04/07 02:17:40;;;;;;;1.87;1.87;;;;;;;-0.91;84.16;101087.25;5341912;26;20446;-71
2021/04/07 02:20:06;;;;;;;1.60;1.60;;;;;;;-0.97;84.15;101080.38;5322355;26;20039;-72
2021/04/07 02:22:31;;;;;;;1.70;1.70;;;;;;;-0.93;84.22;101091.53;5321257;26;20448;-71
2021/04/07 02:24:57;;;;;;;1.70;1.70;;;;;;;-0.92;84.82;101091.56;5322012;26;20484;-70
2021/04/07 02:27:23;;;;;;;1.50;1.50;;;;;;;-0.88;84.12;101087.25;5323022;26;20120;-71
2021/04/07 02:29:50;;;;;;;2.00;1.90;;;;;;;-0.92;84.20;101064.91;5323834;26;20351;-71
2021/04/07 02:32:15;;;;;;;1.55;1.55;;;;;;;-0.82;83.62;101084.69;5322709;26;20531;-71
2021/04/07 02:34:42;;;;;;;1.98;1.92;;;;;;;-0.92;84.21;101075.22;5323746;26;20038;-71
2021/04/07 02:37:11;;;;;;;1.60;1.60;;;;;;;-1.32;84.33;101019.38;5323299;26;20051;-71
2021/04/07 02:39:36;;;;;;;1.60;1.60;;;;;;;-1.03;84.92;101083.78;5322707;26;20402;-71
2021/04/07 02:42:02;;;;;;;1.50;1.50;;;;;;;-1.01;85.22;101074.34;5322913;26;20485;-70
2021/04/07 02:44:28;;;;;;;1.70;1.70;;;;;;;-0.98;85.04;101088.09;5322542;26;20569;-71
2021/04/07 02:46:53;;;;;;;1.60;1.60;;;;;;;-1.02;86.16;101082.09;5340100;26;20484;-70
2021/04/07 02:49:18;;;;;;;1.70;1.70;;;;;;;-2.08;86.40;100899.97;5341743;26;20042;-70
2021/04/07 02:51:44;;;;;;;1.83;1.83;;;;;;;-1.04;86.90;101070.94;5322373;26;20038;-70
2021/04/07 02:54:09;;;;;;;1.45;1.45;;;;;;;-1.02;86.76;101079.53;5341073;26;20043;-70
2021/04/07 02:56:35;;;;;;;1.70;1.70;;;;;;;-1.05;86.95;101077.78;5325242;26;20554;-70
2021/04/07 02:59:00;;;;;;;1.80;1.80;;;;;;;-1.08;86.78;101062.34;5322469;26;20220;-71
2021/04/07 03:01:26;;;;;;;1.60;1.60;;;;;;;-1.08;86.93;101066.63;5336325;26;20053;-71
2021/04/07 03:03:51;;;;;;;1.48;1.48;;;;;;;-0.95;86.45;101075.22;5322599;26;20049;-70
2021/04/07 03:06:16;;;;;;;1.50;1.50;;;;;;;-1.36;85.88;101017.66;5333211;26;20035;-71
2021/04/07 03:08:42;;;;;;;1.80;1.80;;;;;;;-0.96;86.28;101078.66;5341253;26;20438;-70
2021/04/07 03:11:07;;;;;;;1.80;1.80;;;;;;;-0.90;85.96;101082.09;5329878;26;20034;-71
2021/04/07 03:13:32;;;;;;;1.55;1.55;;;;;;;-0.82;85.84;101071.81;5340775;26;20050;-70
2021/04/07 03:15:58;;;;;;;1.50;1.50;;;;;;;-0.81;85.23;101076.94;5332675;26;20469;-69
2021/04/07 03:18:23;;;;;;;1.50;1.50;;;;;;;-0.92;85.73;101067.47;5322137;26;20108;-71
2021/04/07 03:20:49;;;;;;;1.70;1.70;;;;;;;-0.87;85.62;101065.78;5329352;26;20054;-70
2021/04/07 03:23:14;;;;;;;4.10;3.92;;;;;;;-0.82;85.69;101088.13;5320715;26;20099;-70
2021/04/07 03:25:39;;;;;;;1.80;1.80;;;;;;;-0.77;85.32;101085.53;5328215;26;20505;-72
2021/04/07 03:28:05;;;;;;;1.60;1.60;;;;;;;-0.75;85.33;101086.41;5340750;26;20031;-70
2021/04/07 03:30:48;;;;;;;1.60;1.60;;;;;;;-0.65;85.50;101082.13;5335380;26;20076;-72
2021/04/07 03:33:15;;;;;;;1.80;1.80;;;;;;;-0.69;85.78;101080.41;5343153;26;20039;-71
2021/04/07 03:35:40;;;;;;;1.80;1.80;;;;;;;-0.67;85.42;101076.09;5333997;26;20081;-70
2021/04/07 03:38:06;;;;;;;1.65;1.65;;;;;;;-0.64;85.19;101078.69;5323144;26;20054;-70
2021/04/07 03:40:31;;;;;;;1.92;1.83;;;;;;;-0.67;85.83;101083.84;5325950;26;20053;-70
2021/04/07 03:42:56;;;;;;;1.60;1.60;;;;;;;-0.62;85.20;101082.97;5322311;26;20440;-70
2021/04/07 03:45:22;;;;;;;1.52;1.52;;;;;;;-0.84;85.59;101066.66;5325875;26;20053;-71
2021/04/07 03:47:47;;;;;;;1.90;1.90;;;;;;;-0.57;85.41;101089.84;5339489;26;20034;-70
2021/04/07 03:50:12;;;;;;;1.95;1.90;;;;;;;-0.60;86.12;101085.56;5338188;26;20638;-70
2021/04/07 03:52:38;;;;;;;1.70;1.70;;;;;;;-0.59;85.74;101092.44;5340552;26;20049;-70
2021/04/07 03:55:03;;;;;;;1.60;1.60;;;;;;;-0.63;85.44;101082.97;5338540;26;20520;-70
2021/04/07 03:57:29;;;;;;;1.70;1.70;;;;;;;-0.52;85.34;101094.16;5322084;26;20051;-69
2021/04/07 03:59:54;;;;;;;1.80;1.80;;;;;;;-0.54;85.43;101080.41;5321974;26;20169;-72
2021/04/07 04:02:19;;;;;;;1.60;1.60;;;;;;;-0.57;85.40;101062.34;5321229;26;20562;-72
2021/04/07 04:04:45;;;;;;;1.77;1.77;;;;;;;-0.52;85.16;101082.97;5321976;26;20030;-70
2021/04/07 04:07:10;;;;;;;1.80;1.80;;;;;;;-0.46;85.79;101077.78;5321834;26;20047;-71
2021/04/07 04:09:36;;;;;;;1.70;1.70;;;;;;;-0.46;84.75;101086.41;5320754;26;20393;-71
2021/04/07 04:12:01;;;;;;;1.60;1.60;;;;;;;-0.49;85.35;101086.41;5322137;26;20165;-71
2021/04/07 04:14:26;;;;;;;1.95;1.90;;;;;;;-0.84;85.01;101033.16;5321495;26;20119;-70
2021/04/07 04:16:52;;;;;;;1.60;1.60;;;;;;;-0.48;85.00;101088.13;5334045;26;20057;-70
2021/04/07 04:19:17;;;;;;;1.85;1.85;;;;;;;-0.57;85.36;101072.66;5337011;26;20035;-70
2021/04/07 04:21:42;;;;;;;1.83;1.83;;;;;;;-0.51;85.16;101077.81;5320273;26;20057;-72
2021/04/07 04:24:08;;;;;;;3.55;3.45;;;;;;;-0.47;85.21;101071.78;5316364;26;20039;-70
2021/04/07 04:26:33;;;;;;;1.70;1.70;;;;;;;-0.49;85.20;101070.09;5330420;26;20596;-71
2021/04/07 04:28:59;;;;;;;1.80;1.80;;;;;;;-0.55;85.36;101080.41;5317950;26;20035;-71
2021/04/07 04:31:24;;;;;;;1.60;1.60;;;;;;;-0.47;85.07;101081.25;5330017;26;20717;-71
2021/04/07 04:33:49;;;;;;;1.67;1.67;;;;;;;-0.44;85.07;101092.44;5318702;26;20047;-71
2021/04/07 04:36:15;;;;;;;1.77;1.77;;;;;;;-0.44;85.18;101107.03;5330143;26;20343;-70
2021/04/07 04:38:40;;;;;;;1.58;1.58;;;;;;;-0.40;84.82;101088.13;5338037;26;20043;-72
2021/04/07 04:41:06;;;;;;;1.70;1.70;;;;;;;-1.53;85.23;100891.50;5337652;26;20034;-70
2021/04/07 04:43:31;;;;;;;1.80;1.80;;;;;;;-0.37;85.34;101092.44;5335892;26;20105;-71
2021/04/07 04:45:56;;;;;;;1.77;1.77;;;;;;;-0.36;85.56;101086.38;5337381;26;20150;-70
2021/04/07 04:48:22;;;;;;;1.70;1.70;;;;;;;-0.49;85.75;101077.81;5337579;26;20035;-70
2021/04/07 04:50:47;;;;;;;1.80;1.80;;;;;;;-0.43;85.72;101091.56;5328673;26;20108;-71
2021/04/07 04:53:13;;;;;;;1.73;1.73;;;;;;;-0.36;85.45;101097.59;5320917;26;20158;-70
2021/04/07 04:55:38;;;;;;;1.77;1.77;;;;;;;-0.35;85.29;101090.69;5326774;26;20039;-71
2021/04/07 04:58:03;;;;;;;1.60;1.60;;;;;;;-0.25;84.60;101101.00;5318850;26;20481;-72
2021/04/07 05:00:29;;;;;;;1.70;1.70;;;;;;;-0.29;84.43;101095.84;5323131;26;20057;-70
2021/04/07 05:02:54;;;;;;;1.70;1.70;;;;;;;-0.22;84.90;101113.91;5319321;26;20493;-72
2021/04/07 05:05:19;;;;;;;1.60;1.60;;;;;;;-0.17;84.62;101111.31;5318423;26;20047;-70
2021/04/07 05:07:45;;;;;;;1.73;1.73;;;;;;;-0.18;83.69;101107.03;5339153;26;20035;-71
2021/04/07 05:10:11;;;;;;;1.70;1.70;;;;;;;-0.72;83.66;100998.78;5336449;26;20110;-70
2021/04/07 05:12:36;;;;;;;1.60;1.60;;;;;;;-0.12;83.75;101112.19;5318489;26;20055;-71
2021/04/07 05:15:02;;;;;;;1.60;1.60;;;;;;;-0.11;83.77;101113.88;5319505;26;20356;-71
2021/04/07 05:17:28;;;;;;;1.70;1.70;;;;;;;-0.12;83.74;101113.88;5318692;26;20050;-72
2021/04/07 05:19:54;;;;;;;1.70;1.70;;;;;;;-0.15;83.99;101103.56;5318860;26;20042;-70
2021/04/07 05:22:20;;;;;;;1.60;1.60;;;;;;;-0.21;84.27;101104.44;5318894;26;20058;-71
2021/04/07 05:24:45;;;;;;;1.87;1.80;;;;;;;-0.13;84.23;101097.53;5320589;26;20039;-73
2021/04/07 05:27:10;;;;;;;1.60;1.60;;;;;;;-0.14;84.44;101100.12;5320756;26;20034;-71
2021/04/07 05:29:36;;;;;;;1.80;1.80;;;;;;;-0.11;84.26;101105.28;5323535;26;20438;-73
2021/04/07 05:32:01;;;;;;;1.62;1.62;;;;;;;-0.03;83.68;101094.06;5322997;26;20053;-72
2021/04/07 05:34:27;;;;;;;1.60;1.60;;;;;;;-0.08;84.11;101105.25;5324274;26;20450;-73
2021/04/07 05:36:52;;;;;;;1.50;1.50;;;;;;;-0.11;84.97;101100.12;5323060;26;20043;-72
2021/04/07 05:39:17;;;;;;;2.08;1.98;;;;;;;-0.18;85.14;101090.66;5323438;26;20038;-73
2021/04/07 05:41:43;;;;;;;2.20;2.10;;;;;;;-0.12;84.77;101109.59;5323707;26;20575;-73
2021/04/07 05:44:08;;;;;;;1.70;1.70;;;;;;;-0.10;85.66;101107.87;5323338;26;20039;-71
2021/04/07 05:46:33;;;;;;;2.10;2.00;;;;;;;-0.12;86.12;101107.00;5320303;26;20045;-70
2021/04/07 05:48:59;;;;;;;1.70;1.70;;;;;;;-0.08;86.05;101106.16;5323189;26;20043;-70
2021/04/07 05:51:24;;;;;;;1.67;1.67;;;;;;;-0.19;85.92;101100.12;5322340;26;20038;-70
2021/04/07 05:53:50;;;;;;;1.70;1.70;;;;;;;-0.12;86.62;101103.56;5321749;26;20090;-70
2021/04/07 05:56:15;;;;;;;1.58;1.58;;;;;;;-0.12;86.33;101103.56;5321999;26;20170;-71
2021/04/07 05:58:40;;;;;;;1.65;1.65;;;;;;;-0.02;86.63;101100.97;5323981;26;20030;-70
2021/04/07 06:01:06;;;;;;;1.62;1.62;;;;;;;0.04;85.99;101099.22;5321277;26;20036;-71
2021/04/07 06:03:31;;;;;;;1.70;1.70;;;;;;;-0.01;85.67;101097.50;5322126;26;20053;-72
2021/04/07 06:05:56;;;;;;;2.00;1.90;;;;;;;-0.01;86.61;101101.81;5323814;26;20599;-71
2021/04/07 06:08:22;;;;;;;1.60;1.60;;;;;;;-0.03;86.77;101103.53;5323480;26;20042;-71
2021/04/07 06:10:48;;;;;;;1.92;1.87;;;;;;;0.04;86.38;101102.69;5324155;26;20031;-72
2021/04/07 06:13:14;;;;;;;1.80;1.80;;;;;;;-0.01;86.39;101106.97;5322810;26;20065;-71
2021/04/07 06:15:40;;;;;;;1.70;1.70;;;;;;;-0.04;87.23;101110.44;5319352;26;20047;-72
2021/04/07 06:18:07;;;;;;;1.60;1.60;;;;;;;-0.18;87.25;101109.59;5319199;26;20039;-72
2021/04/07 06:20:33;;;;;;;1.80;1.80;;;;;;;-0.15;87.31;101101.84;5322511;26;20035;-71
2021/04/07 06:22:59;;;;;;;1.70;1.70;;;;;;;-0.17;87.71;101101.00;5336638;26;20034;-73
2021/04/07 06:25:27;;;;;;;1.58;1.58;;;;;;;-0.19;88.02;101101.87;5334175;26;20556;-72
2021/04/07 06:27:54;;;;;;;1.83;1.83;;;;;;;-0.18;88.19;101096.72;5335787;26;20049;-72
2021/04/07 06:30:22;;;;;;;1.70;1.70;;;;;;;-0.19;88.29;101086.38;5336248;26;20504;-71
2021/04/07 06:32:47;;;;;;;2.10;2.00;;;;;;;-0.20;87.94;101085.53;5335743;26;20043;-70
2021/04/07 06:35:13;;;;;;;2.08;1.98;;;;;;;-0.11;87.98;101085.50;5335634;26;20043;-70
2021/04/07 06:37:38;;;;;;;1.80;1.80;;;;;;;-0.12;87.81;101093.22;5336252;26;20039;-70
2021/04/07 06:40:07;;;;;;;2.00;1.90;;;;;;;0.02;87.76;101091.50;5336497;26;20051;-70
2021/04/07 06:42:32;;;;;;;2.10;2.00;;;;;;;-0.06;87.89;101094.09;5335398;26;20053;-71
2021/04/07 06:44:59;;;;;;;1.90;1.90;;;;;;;-0.01;87.75;101088.91;5337780;26;20030;-70
2021/04/07 06:47:24;;;;;;;1.95;1.87;;;;;;;0.12;86.73;101085.47;5318385;26;20100;-71
2021/04/07 06:49:49;;;;;;;1.70;1.70;;;;;;;0.18;85.67;101084.56;5318726;26;20297;-71
2021/04/07 06:52:19;;;;;;;2.10;2.03;;;;;;;0.24;85.37;101086.25;5322273;26;20035;-70
2021/04/07 06:54:46;;;;;;;2.00;1.90;;;;;;;0.10;84.84;101088.88;5322534;26;20099;-71
2021/04/07 06:57:11;;;;;;;2.00;1.90;;;;;;;-1.18;85.52;100861.44;5321760;26;20390;-71
2021/04/07 06:59:37;;;;;;;1.75;1.75;;;;;;;0.22;84.69;101073.38;5323491;26;20038;-71
2021/04/07 07:02:03;;;;;;;2.03;1.92;;;;;;;0.22;83.98;101086.28;5322159;26;20103;-71
2021/04/07 07:04:28;;;;;;;1.60;1.60;;;;;;;0.26;84.76;101090.56;5321105;26;20483;-71
2021/04/07 07:06:54;;;;;;;1.70;1.70;;;;;;;0.34;84.19;101072.44;5333889;26;20595;-73
2021/04/07 07:09:19;;;;;;;1.80;1.80;;;;;;;0.22;83.93;101064.75;5328291;26;20076;-73
2021/04/07 07:11:51;;;;;;;2.30;2.20;;;;;;;0.33;84.66;101088.81;5314450;26;20054;-71
2021/04/07 07:14:17;;;;;;;1.80;1.80;;;;;;;0.36;83.97;101079.34;5317104;26;20367;-70
2021/04/07 07:16:51;;;;;;;1.90;1.80;;;;;;;0.42;84.35;101080.16;5337820;26;20259;-70
2021/04/07 07:19:34;;;;;;;2.20;2.10;;;;;;;0.43;83.31;101075.00;5343032;26;20105;-73
2021/04/07 07:22:01;;;;;;;2.35;2.25;;;;;;;0.25;84.52;101041.53;5320619;26;20492;-72
2021/04/07 07:24:30;;;;;;;1.80;1.80;;;;;;;0.57;83.61;101057.72;5339442;26;20611;-71
2021/04/07 07:26:55;;;;;;;1.83;1.83;;;;;;;0.51;84.64;101069.81;5338659;26;20038;-71
2021/04/07 07:29:28;;;;;;;2.10;2.00;;;;;;;0.51;83.96;101065.50;5337279;26;20038;-72
2021/04/07 07:32:07;;;;;;;2.05;1.95;;;;;;;0.26;84.87;101050.97;5336619;26;20073;-72
2021/04/07 07:34:32;;;;;;;1.70;1.70;;;;;;;0.27;86.15;101075.94;5338863;26;20092;-72
2021/04/07 07:36:58;;;;;;;2.05;1.98;;;;;;;0.25;86.17;101070.78;5338686;26;20042;-71
2021/04/07 07:39:29;;;;;;;1.70;1.70;;;;;;;0.31;86.16;101073.34;5337807;26;20061;-72
2021/04/07 07:41:58;;;;;;;1.90;1.87;;;;;;;0.28;85.45;101075.06;5339116;26;20043;-71
2021/04/07 07:44:24;;;;;;;1.80;1.80;;;;;;;0.19;85.38;101076.81;5339216;26;20379;-71
2021/04/07 07:47:07;;;;;;;2.10;2.00;;;;;;;0.21;86.44;101099.19;5337219;26;20097;-73
2021/04/07 07:49:32;;;;;;;1.70;1.70;;;;;;;0.18;86.06;101092.28;5339873;26;20061;-73
2021/04/07 07:51:58;;;;;;;2.20;2.10;;;;;;;0.39;85.81;101087.06;5338490;26;20564;-71
2021/04/07 07:54:24;;;;;;;2.60;2.50;;;;;;;0.43;84.38;101080.16;5319558;26;20069;-71
2021/04/07 07:56:50;;;;;;;1.95;1.85;;;;;;;0.36;85.37;101094.84;5319873;26;20457;-69
2021/04/07 07:59:34;;;;;;;1.73;1.73;;;;;;;0.50;84.57;101094.78;5319979;26;20563;-70
2021/04/07 08:01:59;;;;;;;1.85;1.80;;;;;;;0.62;84.22;101077.50;5338624;26;20065;-72
2021/04/07 08:04:24;;;;;;;1.95;1.90;;;;;;;0.98;83.26;101081.59;5322089;26;20039;-72
2021/04/07 08:06:50;;;;;;;2.00;1.90;;;;;;;0.62;83.02;101080.94;5336161;26;20523;-72
2021/04/07 08:09:15;;;;;;;2.33;2.22;;;;;;;0.92;81.93;101105.78;5337681;26;20057;-72
2021/04/07 08:11:43;;;;;;;1.77;1.77;;;;;;;0.88;82.92;101122.16;5339151;26;20501;-72
2021/04/07 08:14:15;;;;;;;2.10;2.00;;;;;;;0.78;83.91;101107.53;5334647;26;20039;-71
2021/04/07 08:16:45;;;;;;;2.00;1.90;;;;;;;0.95;82.48;101107.47;5324998;26;20077;-71
2021/04/07 08:19:11;;;;;;;2.10;2.00;;;;;;;0.47;83.56;101052.62;5321269;26;20057;-72
2021/04/07 08:21:37;;;;;;;2.28;2.17;;;;;;;0.91;83.40;101111.78;5319723;26;20490;-71
2021/04/07 08:24:02;;;;;;;2.00;1.90;;;;;;;0.65;83.73;101135.16;5320717;26;20052;-71
2021/04/07 08:26:30;;;;;;;1.80;1.80;;;;;;;0.63;83.54;101131.72;5333321;26;20063;-71
2021/04/07 08:28:55;;;;;;;1.87;1.85;;;;;;;0.86;83.59;101121.28;5317812;26;20117;-72
2021/04/07 08:31:21;;;;;;;1.70;1.70;;;;;;;0.66;84.17;101126.56;5332099;26;20058;-71
2021/04/07 08:33:48;;;;;;;2.00;1.90;;;;;;;0.84;84.59;101135.06;5321111;26;20042;-71
2021/04/07 08:36:24;;;;;;;1.77;1.77;;;;;;;0.88;83.92;101140.25;5319305;26;20543;-73
2021/04/07 08:39:01;;;;;;;2.10;2.00;;;;;;;1.01;84.84;101143.59;5339867;26;20785;-72
2021/04/07 08:41:26;;;;;;;2.03;1.92;;;;;;;0.73;84.01;101146.31;5345827;26;20056;-72
2021/04/07 08:43:52;;;;;;;2.10;2.00;;;;;;;0.61;84.70;101142.94;5320938;26;20043;-71
2021/04/07 08:46:26;;;;;;;2.10;2.00;;;;;;;0.67;85.38;101145.50;5320865;26;20080;-72
2021/04/07 08:48:52;;;;;;;2.03;1.92;;;;;;;0.63;84.06;101136.91;5323187;26;20387;-72
2021/04/07 08:51:19;;;;;;;2.00;1.90;;;;;;;0.80;84.82;101154.91;5320152;26;20053;-70
2021/04/07 08:53:47;;;;;;;1.70;1.70;;;;;;;0.92;83.67;101156.56;5339959;26;20038;-73
2021/04/07 08:56:21;;;;;;;2.08;1.98;;;;;;;0.64;83.12;101089.53;5328904;26;20058;-72
2021/04/07 08:58:57;;;;;;;2.00;1.90;;;;;;;0.96;84.70;101155.69;5321946;26;20061;-72
2021/04/07 09:01:32;;;;;;;2.00;1.90;;;;;;;0.68;84.71;101173.03;5339939;26;20073;-72
2021/04/07 09:04:10;;;;;;;1.83;1.83;;;;;;;0.76;84.35;101168.69;5338394;26;20669;-74
2021/04/07 09:06:40;;;;;;;1.83;1.83;;;;;;;0.93;85.05;101166.06;5339758;26;20561;-74
2021/04/07 09:09:06;;;;;;;2.25;2.15;;;;;;;0.85;83.72;101157.47;5338516;26;20060;-71
2021/04/07 09:11:36;;;;;;;2.00;1.90;;;;;;;1.08;84.44;101160.78;5333326;26;20296;-71
2021/04/07 09:14:04;;;;;;;1.70;1.70;;;;;;;1.26;83.12;101158.97;5321810;26;20111;-71
2021/04/07 09:16:39;;;;;;;2.00;1.90;;;;;;;1.27;82.42;101158.09;5321030;26;20046;-73
2021/04/07 09:19:21;;;;;;;2.00;1.90;;;;;;;1.06;84.19;101172.84;5340195;26;20801;-73
2021/04/07 09:22:05;;;;;;;1.70;1.70;;;;;;;1.20;83.63;101170.19;5326535;26;20046;-72
2021/04/07 09:24:39;;;;;;;1.80;1.80;;;;;;;1.37;83.42;101170.09;5321637;26;20049;-73
2021/04/07 09:27:04;;;;;;;2.03;1.92;;;;;;;1.11;82.86;101165.09;5321888;26;20047;-73
2021/04/07 09:29:30;;;;;;;1.70;1.70;;;;;;;1.26;84.25;101177.06;5319640;26;20410;-73
2021/04/07 09:31:55;;;;;;;2.15;2.05;;;;;;;1.33;83.24;101179.59;5320426;26;20298;-74
2021/04/07 09:34:21;;;;;;;1.70;1.70;;;;;;;1.05;83.46;101171.16;5322978;26;20046;-73
2021/04/07 09:36:48;;;;;;;2.00;1.90;;;;;;;0.88;84.95;101134.19;5337711;26;20058;-74
2021/04/07 09:39:18;;;;;;;2.00;1.90;;;;;;;1.29;84.50;101177.91;5341135;26;20112;-72
2021/04/07 09:41:44;;;;;;;2.10;2.00;;;;;;;1.10;84.76;101189.22;5323799;26;20122;-73
2021/04/07 09:44:11;;;;;;;2.10;2.00;;;;;;;1.11;84.85;101189.22;5322368;26;20602;-74
2021/04/07 09:46:36;;;;;;;1.95;1.90;;;;;;;0.97;84.95;101189.28;5340667;26;20038;-73
2021/04/07 09:49:10;;;;;;;1.70;1.70;;;;;;;0.99;85.30;101191.88;5323524;26;20057;-73
2021/04/07 09:51:43;;;;;;;2.10;2.00;;;;;;;0.86;85.33;101200.53;5322637;26;20547;-73
2021/04/07 09:54:27;;;;;;;1.80;1.80;;;;;;;0.89;85.68;101203.09;5322455;26;20461;-74
2021/04/07 09:56:57;;;;;;;1.90;1.87;;;;;;;1.11;85.68;101193.53;5339864;26;20305;-73
2021/04/07 09:59:41;;;;;;;2.10;2.00;;;;;;;1.21;85.54;101199.50;5321925;26;20035;-75
2021/04/07 10:02:10;;;;;;;1.80;1.80;;;;;;;1.56;84.33;101204.44;5379484;26;20117;-73
2021/04/07 10:04:39;;;;;;;1.80;1.80;;;;;;;1.63;84.42;101205.28;5341355;26;20065;-73
2021/04/07 10:07:12;;;;;;;2.00;1.90;;;;;;;1.69;83.98;101210.41;5339098;26;20680;-73
2021/04/07 10:09:37;;;;;;;2.08;1.98;;;;;;;1.46;84.01;101208.81;5340745;26;20035;-73
2021/04/07 10:12:05;;;;;;;1.80;1.80;;;;;;;1.46;84.80;101219.16;5339432;26;20061;-72
2021/04/07 10:14:31;;;;;;;1.70;1.70;;;;;;;1.57;84.32;101219.97;5340991;26;20522;-73
2021/04/07 10:16:56;;;;;;;1.87;1.85;;;;;;;1.50;83.74;101215.69;5358748;26;20039;-74
2021/04/07 10:19:26;;;;;;;2.10;2.00;;;;;;;1.59;84.40;101232.91;5360180;26;20483;-74
2021/04/07 10:21:57;;;;;;;2.00;1.90;;;;;;;1.50;83.65;101191.56;5337124;26;20568;-73
2021/04/07 10:24:22;;;;;;;1.95;1.90;;;;;;;1.62;84.86;101219.06;5339307;26;20496;-74
2021/04/07 10:26:47;;;;;;;2.17;2.08;;;;;;;1.62;85.41;101224.25;5358478;26;20039;-75
2021/04/07 10:29:23;;;;;;;2.05;1.95;;;;;;;2.07;84.28;101222.19;5358876;26;20500;-73
2021/04/07 10:31:58;;;;;;;2.10;2.00;;;;;;;2.13;84.58;101233.34;5338364;26;20047;-73
2021/04/07 10:34:33;;;;;;;1.80;1.80;;;;;;;1.75;85.27;101205.19;5340221;26;20099;-74
2021/04/07 10:36:59;;;;;;;2.00;1.90;;;;;;;2.05;83.95;101232.56;5341081;26;20145;-73
2021/04/07 10:39:24;;;;;;;2.10;2.00;;;;;;;2.21;84.44;101235.88;5339495;26;20065;-72
2021/04/07 10:41:53;;;;;;;1.85;1.83;;;;;;;2.03;85.42;101228.28;5339374;26;20111;-73
2021/04/07 10:44:29;;;;;;;2.00;1.90;;;;;;;2.05;84.15;101242.91;5340058;26;20038;-74
2021/04/07 10:46:54;;;;;;;2.00;1.90;;;;;;;2.16;84.60;101250.56;5340228;26;20628;-74
2021/04/07 10:49:20;;;;;;;3.08;2.97;;;;;;;1.97;85.13;101252.47;5357896;26;20134;-73
2021/04/07 10:51:45;;;;;;;2.10;2.00;;;;;;;1.96;85.04;101254.16;5341398;26;20053;-74
2021/04/07 10:54:11;;;;;;;2.17;2.08;;;;;;;1.95;85.52;101265.41;5341352;26;20042;-73
2021/04/07 10:56:36;;;;;;;2.12;2.03;;;;;;;2.05;85.32;101276.56;5358417;26;20054;-74
2021/04/07 10:59:05;;;;;;;1.80;1.77;;;;;;;2.08;85.20;101276.53;5341503;26;20243;-73
2021/04/07 11:01:34;;;;;;;1.92;1.83;;;;;;;2.37;85.88;101276.28;5340774;26;20329;-72
2021/04/07 11:04:15;;;;;;;1.80;1.80;;;;;;;2.57;84.53;101283.88;5339235;26;20038;-72
2021/04/07 11:06:41;;;;;;;2.03;1.92;;;;;;;2.70;84.73;101270.78;5340377;26;20043;-74
2021/04/07 11:09:06;;;;;;;2.40;2.30;;;;;;;2.62;84.99;101278.63;5340534;26;20061;-73
2021/04/07 11:11:32;;;;;;;2.10;2.00;;;;;;;2.98;85.20;101279.12;5339451;26;20038;-72
2021/04/07 11:13:57;;;;;;;2.20;2.10;;;;;;;3.07;83.65;101281.63;5359439;26;20096;-73
2021/04/07 11:16:32;;;;;;;2.45;2.35;;;;;;;3.05;83.61;101285.97;5358714;26;20042;-72
2021/04/07 11:18:57;;;;;;;4.15;3.90;;;;;;;2.92;84.12;101242.91;5339980;26;20042;-73
2021/04/07 11:21:23;;;;;;;2.10;2.00;;;;;;;3.02;84.01;101288.59;5359149;26;20116;-72
2021/04/07 11:23:48;;;;;;;2.10;2.00;;;;;;;3.18;83.80;101299.62;5358867;26;20477;-73
2021/04/07 11:26:14;;;;;;;2.20;2.10;;;;;;;3.31;83.76;101295.19;5357986;26;20496;-73
2021/04/07 11:28:39;;;;;;;2.03;1.92;;;;;;;3.38;82.84;101287.28;5359519;26;20035;-73